createdAt,value
2023-04-12T00:01:11.511Z,2.80
2023-04-12T00:04:00.390Z,2.45
2023-04-12T00:06:48.640Z,2.33
2023-04-12T00:09:36.639Z,2.33
2023-04-12T00:12:23.607Z,2.83
2023-04-12T00:15:11.346Z,2.30
2023-04-12T00:17:58.661Z,2.40
2023-04-12T00:20:47.257Z,2.42
2023-04-12T00:23:34.434Z,2.00
2023-04-12T00:26:22.411Z,2.30
2023-04-12T00:29:09.277Z,2.03
2023-04-12T00:31:56.350Z,2.25
2023-04-12T00:34:43.705Z,2.15
2023-04-12T00:37:32.269Z,2.42
2023-04-12T00:40:19.343Z,2.10
2023-04-12T00:43:06.316Z,2.42
2023-04-12T00:45:53.707Z,2.10
2023-04-12T00:48:41.204Z,2.45
2023-04-12T00:51:33.337Z,1.85
2023-04-12T00:54:22.570Z,2.03
2023-04-12T00:57:09.808Z,2.10
2023-04-12T00:59:56.734Z,2.13
2023-04-12T01:02:47.507Z,2.08
2023-04-12T01:05:52.076Z,2.22
2023-04-12T01:08:52.767Z,2.00
2023-04-12T01:11:46.376Z,2.00
2023-04-12T01:14:45.627Z,1.90
2023-04-12T01:17:39.359Z,2.00
2023-04-12T01:20:31.546Z,1.83
2023-04-12T01:23:43.011Z,2.20
2023-04-12T01:26:41.933Z,1.80
2023-04-12T01:29:32.145Z,1.88
2023-04-12T01:32:22.514Z,1.80
2023-04-12T01:35:11.387Z,1.85
2023-04-12T01:38:00.197Z,2.03
2023-04-12T01:40:47.222Z,2.22
2023-04-12T01:43:34.285Z,1.88
2023-04-12T01:46:24.911Z,2.05
2023-04-12T01:49:14.312Z,1.63
2023-04-12T01:52:09.792Z,1.98
2023-04-12T01:55:00.150Z,1.60
2023-04-12T01:57:49.521Z,1.63
2023-04-12T02:00:38.236Z,1.88
2023-04-12T02:03:30.504Z,1.50
2023-04-12T02:06:21.758Z,1.90
2023-04-12T02:09:09.943Z,2.17
2023-04-12T02:11:57.923Z,1.88
2023-04-12T02:14:45.229Z,2.13
2023-04-12T02:17:32.092Z,1.70
2023-04-12T02:20:21.458Z,1.58
2023-04-12T02:23:08.840Z,1.83
2023-04-12T02:25:57.638Z,1.35
2023-04-12T02:28:46.134Z,1.90
2023-04-12T02:31:36.871Z,2.05
2023-04-12T02:34:24.201Z,2.15
2023-04-12T02:37:22.709Z,2.17
2023-04-12T02:40:11.768Z,1.80
2023-04-12T02:43:00.045Z,2.13
2023-04-12T02:45:49.360Z,1.60
2023-04-12T02:48:36.793Z,1.90
2023-04-12T02:51:24.792Z,1.70
2023-04-12T02:54:13.041Z,1.80
2023-04-12T02:57:16.990Z,2.03
2023-04-12T03:00:12.062Z,2.25
2023-04-12T03:03:04.583Z,2.10
2023-04-12T03:05:53.692Z,2.00
2023-04-12T03:08:40.932Z,1.67
2023-04-12T03:11:29.394Z,1.70
2023-04-12T03:14:17.586Z,1.63
2023-04-12T03:17:04.462Z,2.05
2023-04-12T03:19:53.300Z,2.10
2023-04-12T03:22:41.858Z,1.73
2023-04-12T03:25:30.321Z,2.00
2023-04-12T03:28:26.727Z,1.70
2023-04-12T03:31:15.542Z,2.03
2023-04-12T03:34:04.678Z,2.00
2023-04-12T03:36:52.596Z,1.90
2023-04-12T03:39:50.161Z,1.90
2023-04-12T03:42:43.159Z,2.22
2023-04-12T03:45:33.909Z,1.90
2023-04-12T03:48:23.004Z,2.00
2023-04-12T03:51:12.255Z,2.28
2023-04-12T03:54:04.689Z,2.00
2023-04-12T03:57:04.559Z,1.80
2023-04-12T04:00:12.975Z,1.95
2023-04-12T04:03:26.873Z,2.55
2023-04-12T04:06:13.950Z,1.92
2023-04-12T04:09:01.427Z,2.05
2023-04-12T04:11:50.059Z,2.20
2023-04-12T04:14:39.129Z,1.50
2023-04-12T04:17:29.318Z,1.60
2023-04-12T04:20:19.163Z,2.05
2023-04-12T04:23:10.444Z,1.80
2023-04-12T04:26:03.202Z,2.20
2023-04-12T04:28:51.853Z,1.77
2023-04-12T04:31:46.174Z,1.95
2023-04-12T04:34:35.276Z,2.28
2023-04-12T04:37:33.448Z,2.15
2023-04-12T04:40:21.486Z,1.90
2023-04-12T04:43:10.082Z,2.15
2023-04-12T04:46:02.593Z,2.30
2023-04-12T04:48:51.909Z,1.98
2023-04-12T04:51:38.966Z,2.65
2023-04-12T04:54:27.453Z,2.53
2023-04-12T04:57:15.025Z,2.38
2023-04-12T05:00:02.051Z,1.90
2023-04-12T05:02:49.941Z,2.28
2023-04-12T05:05:43.769Z,1.77
2023-04-12T05:08:31.186Z,2.55
2023-04-12T05:11:20.396Z,1.95
2023-04-12T05:14:08.537Z,2.35
2023-04-12T05:16:56.766Z,1.70
2023-04-12T05:19:44.935Z,2.20
2023-04-12T05:22:32.699Z,2.28
2023-04-12T05:25:20.979Z,2.33
2023-04-12T05:28:17.891Z,2.50
2023-04-12T05:31:06.327Z,2.35
2023-04-12T05:33:57.779Z,2.20
2023-04-12T05:36:50.349Z,2.50
2023-04-12T05:39:37.367Z,2.25
2023-04-12T05:42:25.576Z,1.90
2023-04-12T05:45:14.141Z,1.83
2023-04-12T05:48:03.604Z,2.33
2023-04-12T05:50:52.783Z,2.20
2023-04-12T05:53:41.093Z,2.15
2023-04-12T05:56:28.032Z,1.90
2023-04-12T05:59:15.273Z,2.17
2023-04-12T06:02:04.072Z,1.98
2023-04-12T06:04:52.816Z,2.30
2023-04-12T06:07:40.538Z,2.03
2023-04-12T06:10:27.608Z,2.30
2023-04-12T06:13:14.682Z,2.67
2023-04-12T06:16:03.397Z,2.10
2023-04-12T06:18:52.111Z,2.65
2023-04-12T06:21:39.366Z,2.20
2023-04-12T06:24:27.156Z,1.98
2023-04-12T06:27:14.783Z,2.15
2023-04-12T06:30:02.307Z,2.95
2023-04-12T06:32:52.635Z,2.15
2023-04-12T06:35:41.254Z,2.33
2023-04-12T06:38:28.705Z,1.90
2023-04-12T06:41:16.235Z,2.22
2023-04-12T06:44:03.665Z,2.30
2023-04-12T06:46:54.515Z,2.10
2023-04-12T06:49:42.461Z,2.22
2023-04-12T06:52:31.348Z,2.47
2023-04-12T06:55:20.134Z,2.53
2023-04-12T06:58:07.264Z,2.55
2023-04-12T07:00:55.020Z,2.25
2023-04-12T07:03:42.806Z,2.47
2023-04-12T07:06:30.526Z,3.05
2023-04-12T07:09:19.688Z,2.88
2023-04-12T07:12:07.167Z,2.75
2023-04-12T07:14:55.168Z,2.60
2023-04-12T07:17:43.197Z,2.42
2023-04-12T07:20:31.573Z,2.70
2023-04-12T07:23:19.187Z,2.40
2023-04-12T07:26:08.103Z,2.28
2023-04-12T07:28:56.532Z,2.30
2023-04-12T07:31:46.170Z,2.88
2023-04-12T07:34:33.924Z,2.60
2023-04-12T07:37:21.652Z,2.60
2023-04-12T07:40:10.143Z,2.67
2023-04-12T07:42:58.730Z,2.33
2023-04-12T07:45:46.162Z,1.85
2023-04-12T07:48:33.437Z,2.38
2023-04-12T07:51:21.218Z,2.20
2023-04-12T07:54:09.166Z,2.30
2023-04-12T07:57:01.062Z,2.10
2023-04-12T07:59:50.106Z,2.25
2023-04-12T08:02:39.506Z,1.90
2023-04-12T08:05:27.439Z,2.42
2023-04-12T08:08:15.431Z,2.25
2023-04-12T08:11:05.375Z,1.98
2023-04-12T08:13:56.329Z,1.95
2023-04-12T08:16:45.694Z,2.25
2023-04-12T08:19:33.599Z,1.98
2023-04-12T08:22:23.091Z,2.17
2023-04-12T08:25:11.922Z,1.95
2023-04-12T08:27:59.599Z,2.13
2023-04-12T08:30:47.251Z,2.10
2023-04-12T08:33:38.481Z,1.92
2023-04-12T08:36:25.902Z,1.92
2023-04-12T08:39:16.504Z,2.38
2023-04-12T08:42:06.563Z,1.63
2023-04-12T08:44:54.871Z,1.90
2023-04-12T08:47:45.995Z,1.85
2023-04-12T08:50:35.651Z,2.17
2023-04-12T08:53:26.224Z,2.10
2023-04-12T08:56:17.536Z,2.13
2023-04-12T08:59:08.282Z,2.13
2023-04-12T09:01:57.307Z,2.70
2023-04-12T09:04:54.022Z,2.30
2023-04-12T09:07:43.915Z,2.30
2023-04-12T09:10:34.277Z,2.40
2023-04-12T09:13:33.413Z,2.47
2023-04-12T09:16:36.005Z,2.10
2023-04-12T09:19:33.235Z,2.08
2023-04-12T09:22:20.644Z,2.08
2023-04-12T09:25:09.985Z,2.17
2023-04-12T09:27:59.033Z,2.15
2023-04-12T09:30:51.886Z,1.90
2023-04-12T09:33:40.922Z,1.90
2023-04-12T09:36:39.868Z,1.50
2023-04-12T09:39:37.149Z,1.35
2023-04-12T09:42:34.017Z,1.77
2023-04-12T09:45:25.879Z,1.20
2023-04-12T09:48:22.348Z,1.45
2023-04-12T09:51:14.046Z,1.40
2023-04-12T09:54:04.140Z,1.73
2023-04-12T09:56:57.139Z,1.30
2023-04-12T09:59:47.652Z,1.55
2023-04-12T10:02:35.552Z,1.08
2023-04-12T10:05:26.996Z,1.50
2023-04-12T10:08:18.123Z,1.50
2023-04-12T10:11:06.670Z,1.13
2023-04-12T10:13:54.798Z,1.50
2023-04-12T10:16:45.087Z,1.10
2023-04-12T10:19:37.384Z,1.52
2023-04-12T10:22:25.241Z,1.20
2023-04-12T10:25:16.344Z,1.40
2023-04-12T10:28:17.587Z,1.40
2023-04-12T10:31:35.202Z,1.35
2023-04-12T10:34:32.305Z,1.20
2023-04-12T10:37:20.457Z,1.25
2023-04-12T10:40:19.458Z,1.45
2023-04-12T10:43:31.059Z,1.38
2023-04-12T10:46:42.590Z,1.27
2023-04-12T10:49:29.620Z,1.23
2023-04-12T10:52:18.274Z,0.90
2023-04-12T10:55:30.463Z,0.70
2023-04-12T10:58:47.709Z,0.90
2023-04-12T11:01:38.889Z,0.93
2023-04-12T11:04:37.310Z,0.70
2023-04-12T11:07:49.727Z,0.88
2023-04-12T11:11:24.450Z,1.00
2023-04-12T11:14:18.859Z,1.00
2023-04-12T11:17:29.276Z,1.30
2023-04-12T11:20:24.813Z,0.98
2023-04-12T11:23:23.023Z,0.90
2023-04-12T11:26:21.967Z,1.27
2023-04-12T11:29:18.735Z,0.98
2023-04-12T11:32:19.848Z,1.00
2023-04-12T11:35:20.008Z,1.23
2023-04-12T11:38:08.711Z,1.00
2023-04-12T11:40:57.349Z,1.10
2023-04-12T11:43:44.950Z,1.48
2023-04-12T11:46:35.562Z,1.40
2023-04-12T11:49:24.423Z,1.40
2023-04-12T11:52:12.503Z,1.60
2023-04-12T11:55:05.303Z,1.88
2023-04-12T11:57:56.255Z,1.67
2023-04-12T12:00:45.025Z,1.60
2023-04-12T12:03:32.409Z,1.50
2023-04-12T12:06:20.857Z,1.23
2023-04-12T12:09:08.134Z,1.40
2023-04-12T12:11:56.769Z,2.30
2023-04-12T12:14:47.417Z,1.30
2023-04-12T12:17:38.026Z,1.63
2023-04-12T12:20:26.849Z,1.85
2023-04-12T12:23:13.782Z,1.70
2023-04-12T12:27:07.615Z,1.88
2023-04-12T12:29:09.434Z,1.60
2023-04-12T12:31:58.537Z,1.50
2023-04-12T12:34:54.592Z,1.10
2023-04-12T12:37:51.724Z,1.10
2023-04-12T12:40:40.124Z,1.20
2023-04-12T12:43:30.707Z,1.08
2023-04-12T12:46:21.222Z,1.17
2023-04-12T12:49:10.057Z,1.40
2023-04-12T12:52:00.742Z,1.60
2023-04-12T12:54:48.036Z,2.15
2023-04-12T12:57:36.070Z,1.00
2023-04-12T13:00:26.326Z,0.90
2023-04-12T13:03:14.101Z,0.80
2023-04-12T13:06:03.999Z,0.73
2023-04-12T13:08:52.640Z,2.72
2023-04-12T13:11:40.617Z,1.08
2023-04-12T13:14:30.856Z,0.65
2023-04-12T13:17:18.686Z,0.95
2023-04-12T13:20:07.101Z,0.88
2023-04-12T13:23:02.941Z,0.73
2023-04-12T13:25:50.564Z,0.80
2023-04-12T13:28:38.556Z,0.70
2023-04-12T13:31:26.362Z,0.70
2023-04-12T13:34:13.918Z,0.98
2023-04-12T13:37:04.860Z,1.00
2023-04-12T13:39:54.248Z,0.88
2023-04-12T13:42:41.797Z,0.80
2023-04-12T13:45:29.918Z,0.70
2023-04-12T13:48:19.910Z,0.90
2023-04-12T13:51:07.716Z,1.02
2023-04-12T13:53:58.489Z,0.80
2023-04-12T13:56:47.925Z,0.80
2023-04-12T13:59:44.818Z,0.80
2023-04-12T14:02:44.312Z,0.80
2023-04-12T14:05:32.516Z,0.77
2023-04-12T14:08:22.605Z,1.02
2023-04-12T14:11:10.174Z,0.70
2023-04-12T14:14:03.822Z,1.00
2023-04-12T14:16:53.677Z,0.80
2023-04-12T14:19:41.420Z,0.80
2023-04-12T14:22:30.513Z,0.98
2023-04-12T14:25:18.207Z,0.85
2023-04-12T14:28:05.969Z,0.98
2023-04-12T14:30:55.746Z,0.77
2023-04-12T14:33:44.767Z,1.17
2023-04-12T14:36:33.559Z,0.98
2023-04-12T14:39:24.898Z,0.93
2023-04-12T14:42:13.281Z,0.70
2023-04-12T14:45:02.649Z,1.17
2023-04-12T14:47:52.467Z,0.90
2023-04-12T14:50:40.403Z,1.15
2023-04-12T14:53:28.099Z,0.70
2023-04-12T14:56:24.551Z,1.10
2023-04-12T14:59:13.772Z,0.73
2023-04-12T15:02:02.783Z,1.05
2023-04-12T15:04:52.562Z,0.90
2023-04-12T15:07:42.044Z,0.90
2023-04-12T15:10:30.929Z,0.80
2023-04-12T15:13:20.830Z,0.80
2023-04-12T15:16:10.344Z,0.90
2023-04-12T15:19:00.828Z,0.90
2023-04-12T15:21:53.145Z,0.88
2023-04-12T15:24:40.755Z,0.98
2023-04-12T15:27:28.363Z,0.98
2023-04-12T15:30:19.258Z,1.00
2023-04-12T15:33:06.721Z,0.73
2023-04-12T15:36:01.847Z,0.90
2023-04-12T15:38:51.640Z,0.70
2023-04-12T15:41:42.277Z,0.70
2023-04-12T15:44:32.519Z,0.93
2023-04-12T15:47:20.192Z,0.80
2023-04-12T15:50:13.297Z,0.90
2023-04-12T15:53:01.811Z,0.80
2023-04-12T15:55:55.385Z,1.08
2023-04-12T16:01:32.405Z,0.80
2023-04-12T16:04:24.289Z,1.42
2023-04-12T16:07:11.893Z,0.73
2023-04-12T16:09:59.449Z,1.02
2023-04-12T16:12:50.111Z,0.90
2023-04-12T16:15:40.390Z,0.80
2023-04-12T16:18:31.135Z,0.80
2023-04-12T16:21:20.322Z,1.08
2023-04-12T16:24:09.590Z,0.90
2023-04-12T16:26:57.495Z,1.10
2023-04-12T16:29:47.330Z,0.90
2023-04-12T16:32:38.524Z,0.80
2023-04-12T16:35:26.488Z,1.73
2023-04-12T16:38:16.480Z,0.90
2023-04-12T16:41:06.060Z,1.30
2023-04-12T16:44:11.921Z,1.10
2023-04-12T16:47:01.321Z,1.08
2023-04-12T16:49:49.332Z,1.27
2023-04-12T16:52:40.164Z,1.20
2023-04-12T16:55:30.474Z,1.35
2023-04-12T16:58:22.101Z,1.00
2023-04-12T17:01:09.707Z,0.90
2023-04-12T17:04:00.427Z,1.10
2023-04-12T17:06:48.278Z,1.20
2023-04-12T17:09:39.206Z,0.82
2023-04-12T17:12:28.289Z,1.30
2023-04-12T17:15:17.524Z,1.17
2023-04-12T17:18:07.474Z,1.40
2023-04-12T17:20:57.381Z,1.10
2023-04-12T17:23:47.203Z,1.17
2023-04-12T17:26:35.736Z,1.00
2023-04-12T17:29:27.944Z,1.00
2023-04-12T17:35:07.257Z,0.75
2023-04-12T17:37:55.992Z,0.90
2023-04-12T17:40:43.458Z,0.85
2023-04-12T17:43:33.410Z,0.90
2023-04-12T17:46:21.348Z,1.00
2023-04-12T17:49:09.203Z,0.93
2023-04-12T17:51:56.674Z,0.70
2023-04-12T17:54:45.841Z,0.90
2023-04-12T17:57:33.405Z,0.70
2023-04-12T18:00:24.226Z,0.70
2023-04-12T18:03:12.614Z,0.80
2023-04-12T18:06:01.093Z,0.70
2023-04-12T18:08:51.457Z,0.90
2023-04-12T18:11:44.510Z,0.70
2023-04-12T18:14:32.022Z,0.80
2023-04-12T18:17:19.496Z,0.90
2023-04-12T18:20:11.171Z,0.80
2023-04-12T18:23:01.968Z,0.70
2023-04-12T18:25:51.118Z,0.82
2023-04-12T18:28:42.863Z,0.50
2023-04-12T18:31:30.565Z,0.82
2023-04-12T18:34:19.648Z,0.80
2023-04-12T18:37:07.659Z,1.13
2023-04-12T18:39:55.666Z,0.82
2023-04-12T18:42:44.637Z,1.08
2023-04-12T18:45:34.085Z,1.10
2023-04-12T18:48:22.486Z,0.90
2023-04-12T18:51:10.698Z,1.20
2023-04-12T18:54:01.252Z,1.10
2023-04-12T18:56:49.716Z,1.60
2023-04-12T18:59:38.693Z,1.60
2023-04-12T19:02:30.735Z,1.10
2023-04-12T19:05:22.055Z,1.13
2023-04-12T19:08:10.342Z,1.15
2023-04-12T19:10:58.189Z,1.13
2023-04-12T19:13:46.060Z,1.15
2023-04-12T19:16:34.381Z,1.13
2023-04-12T19:19:23.895Z,1.42
2023-04-12T19:22:14.814Z,1.00
2023-04-12T19:25:03.102Z,1.02
2023-04-12T19:27:54.104Z,1.38
2023-04-12T19:30:41.932Z,0.60
2023-04-12T19:33:29.834Z,0.88
2023-04-12T19:36:23.465Z,0.90
2023-04-12T19:39:11.451Z,1.02
2023-04-12T19:41:59.265Z,1.00
2023-04-12T19:44:46.851Z,0.75
2023-04-12T19:47:34.502Z,1.10
2023-04-12T19:50:22.254Z,0.88
2023-04-12T19:53:12.415Z,0.88
2023-04-12T19:56:01.018Z,1.15
2023-04-12T19:58:51.030Z,1.10
2023-04-12T20:01:48.431Z,0.75
2023-04-12T20:04:36.496Z,0.90
2023-04-12T20:07:24.549Z,1.00
2023-04-12T20:10:13.907Z,0.90
2023-04-12T20:13:01.916Z,1.00
2023-04-12T20:15:49.734Z,0.98
2023-04-12T20:18:37.438Z,1.15
2023-04-12T20:21:25.161Z,1.15
2023-04-12T20:24:12.863Z,0.93
2023-04-12T20:27:02.832Z,0.93
2023-04-12T20:29:51.163Z,1.00
2023-04-12T20:32:38.992Z,0.90
2023-04-12T20:35:29.285Z,0.90
2023-04-12T20:38:18.674Z,1.10
2023-04-12T20:41:06.029Z,0.95
2023-04-12T20:43:54.946Z,0.80
2023-04-12T20:46:42.841Z,1.10
2023-04-12T20:49:31.644Z,1.33
2023-04-12T20:52:19.668Z,1.58
2023-04-12T20:55:07.526Z,1.00
2023-04-12T20:57:55.968Z,0.85
2023-04-12T21:00:47.188Z,0.63
2023-04-12T21:03:36.007Z,0.70
2023-04-12T21:06:23.848Z,0.93
2023-04-12T21:09:11.676Z,0.98
2023-04-12T21:12:02.942Z,1.02
2023-04-12T21:14:51.099Z,0.77
2023-04-12T21:17:41.066Z,1.00
2023-04-12T21:20:32.042Z,0.88
2023-04-12T21:23:20.212Z,0.85
2023-04-12T21:26:07.655Z,0.90
2023-04-12T21:28:55.514Z,0.80
2023-04-12T21:31:43.362Z,0.93
2023-04-12T21:34:33.145Z,0.95
2023-04-12T21:37:22.406Z,0.80
2023-04-12T21:40:12.823Z,0.88
2023-04-12T21:43:01.602Z,0.93
2023-04-12T21:45:52.250Z,0.70
2023-04-12T21:48:39.843Z,1.13
2023-04-12T21:51:28.478Z,1.00
2023-04-12T21:54:16.093Z,1.00
2023-04-12T21:57:03.479Z,0.68
2023-04-12T21:59:51.129Z,0.70
2023-04-12T22:02:39.545Z,0.60
2023-04-12T22:05:29.053Z,0.90
2023-04-12T22:08:17.924Z,1.10
2023-04-12T22:11:05.796Z,0.63
2023-04-12T22:13:54.442Z,0.60
2023-04-12T22:16:42.094Z,0.70
2023-04-12T22:19:30.501Z,0.65
2023-04-12T22:22:18.233Z,0.90
2023-04-12T22:25:12.260Z,0.70
2023-04-12T22:28:01.459Z,0.80
2023-04-12T22:30:49.248Z,0.73
2023-04-12T22:33:37.175Z,0.70
2023-04-12T22:36:28.592Z,0.73
2023-04-12T22:39:20.036Z,0.68
2023-04-12T22:42:09.097Z,0.80
2023-04-12T22:44:59.410Z,0.85
2023-04-12T22:47:47.873Z,0.75
2023-04-12T22:50:35.594Z,0.70
2023-04-12T22:53:25.866Z,0.68
2023-04-12T22:56:13.865Z,0.77
2023-04-12T22:59:02.774Z,0.60
2023-04-12T23:01:50.368Z,0.70
2023-04-12T23:04:44.087Z,0.80
2023-04-12T23:07:34.311Z,0.43
2023-04-12T23:10:22.753Z,0.75
2023-04-12T23:13:10.335Z,0.70
2023-04-12T23:16:05.937Z,0.68
2023-04-12T23:18:53.653Z,0.60
2023-04-12T23:21:41.308Z,0.70
2023-04-12T23:24:28.804Z,0.70
2023-04-12T23:27:16.189Z,0.93
2023-04-12T23:30:03.826Z,0.75
2023-04-12T23:32:53.815Z,1.10
2023-04-12T23:35:43.937Z,0.70
2023-04-12T23:38:34.183Z,0.90
2023-04-12T23:41:21.510Z,1.00
2023-04-12T23:44:09.375Z,1.05
2023-04-12T23:46:56.956Z,1.10
2023-04-12T23:49:49.073Z,0.82
2023-04-12T23:52:36.859Z,0.90
2023-04-12T23:55:24.000Z,0.75
2023-04-12T23:58:12.136Z,0.85
